Takamine — 7JKK — position and weather

sailwx.info

Track history (hours):
 
Tides and Currents Weather Stations Pressure Air Temp Water Temp Dewpoint Dewpoint Depression Visibility Wind Speed Wind Dir Waves Ship Positions

Takamine

Last reported at 2014-Jul-18 12:20 UTC. Time now 2014-Jul-23 23:45 UTC.
Position N 34°51' E 139°36'.

Length 333 m; draft 10.4 m.

Type: Tanker. MMSI: 432832000.

Date/timePositionNaut miles runAvg speedWind from/ knotsBaromVisibWave heightAir tempDewpointWater temp
2014-Jul-18 12:20N 34°51' E 139°36'1215.5
2014-Jul-18 11:33N 35°03' E 139°40'1312.5
2014-Jul-18 10:33N 35°14' E 139°46'1211.9
2014-Jul-18 09:33N 35°26' E 139°45'1010.0
2014-Jul-18 08:33N 35°31' E 139°56'0 0.1
2014-Jul-18 07:32N 35°31' E 139°56'0 0.0
2014-Jul-18 06:32N 35°31' E 139°56'0 0.0
2014-Jul-18 05:29N 35°31' E 139°56'0 0.0
2014-Jul-18 04:32N 35°31' E 139°56'0 0.0
2014-Jul-18 03:32N 35°31' E 139°56'0 0.0
2014-Jul-18 02:32N 35°31' E 139°56'0 0.0
2014-Jul-18 01:32N 35°31' E 139°56'0 0.0
2014-Jul-18 00:32N 35°31' E 139°56'0 0.0
2014-Jul-17 23:29N 35°31' E 139°56'0 0.0
2014-Jul-17 22:32N 35°31' E 139°56'0 0.0
2014-Jul-17 21:32N 35°31' E 139°56'0 0.0
2014-Jul-17 20:32N 35°31' E 139°56'0 0.0
2014-Jul-17 19:32N 35°31' E 139°56'0 0.0
2014-Jul-17 18:32N 35°31' E 139°56'0 0.0
2014-Jul-17 17:32N 35°31' E 139°56'0 0.0
2014-Jul-17 16:32N 35°31' E 139°56'0 0.0
2014-Jul-17 15:32N 35°31' E 139°56'0 0.0
2014-Jul-17 14:32N 35°31' E 139°56'0 0.0
2014-Jul-17 13:32N 35°31' E 139°56'0 0.0
2014-Jul-17 12:32N 35°31' E 139°56'0 0.0
2014-Jul-17 11:32N 35°31' E 139°56'0 0.0
2014-Jul-17 10:32N 35°31' E 139°56'0 0.0
2014-Jul-17 09:32N 35°31' E 139°56'0 0.0
2014-Jul-17 08:32N 35°31' E 139°56'0 0.0
2014-Jul-17 07:32N 35°31' E 139°56'0 0.0
2014-Jul-17 06:32N 35°31' E 139°56'0 0.0
2014-Jul-17 05:29N 35°31' E 139°56'0 0.0
2014-Jul-17 04:32N 35°31' E 139°56'0 0.0
2014-Jul-17 03:32N 35°31' E 139°56'0 0.0
2014-Jul-17 02:32N 35°31' E 139°56'0 0.0
2014-Jul-17 01:32N 35°31' E 139°56'0 0.0
2014-Jul-17 00:29N 35°31' E 139°56'0 0.0
2014-Jul-16 23:32N 35°31' E 139°56'0 0.0
2014-Jul-16 22:32N 35°31' E 139°56'0 0.0
2014-Jul-16 21:32N 35°31' E 139°56'0 0.0
2014-Jul-16 20:32N 35°31' E 139°56'0 0.0
2014-Jul-16 19:26N 35°31' E 139°56'0 0.0
2014-Jul-16 18:32N 35°31' E 139°56'0 0.0
2014-Jul-16 17:32N 35°31' E 139°56'0 0.0
2014-Jul-16 16:32N 35°31' E 139°56'0 0.0
2014-Jul-16 15:32N 35°31' E 139°56'0 0.0
2014-Jul-16 14:32N 35°31' E 139°56'0 0.0
2014-Jul-16 13:32N 35°31' E 139°56'0 0.0
2014-Jul-16 12:32N 35°31' E 139°56'0 0.0
2014-Jul-16 11:32N 35°31' E 139°56'0 0.0
2014-Jul-16 10:32N 35°31' E 139°56'0 0.0
2014-Jul-16 09:32N 35°31' E 139°56'0 0.0
2014-Jul-16 08:32N 35°31' E 139°56'0 0.1
2014-Jul-16 07:33N 35°31' E 139°56'2 1.7
2014-Jul-16 06:33N 35°30' E 139°54'8 7.9
2014-Jul-16 05:34N 35°25' E 139°47'1010.3
2014-Jul-16 04:33N 35°14' E 139°47'9 8.7
2014-Jul-16 03:34N 35°06' E 139°46'8 8.2
2014-Jul-16 02:33N 34°58' E 139°41'8 8.0
2014-Jul-16 01:33N 34°50' E 139°40'10 9.0
2014-Jul-16 00:29N 34°41' E 139°38'1110.8
2014-Jul-15 23:25N 34°30' E 139°42'1212.1
2014-Jul-15 22:25N 34°18' E 139°41'4214.3
2014-Jul-15 19:28N 33°51' E 139°02'  
Track history (hours):
 
Tides and Currents Weather Stations Pressure Air Temp Water Temp Dewpoint Dewpoint Depression Visibility Wind Speed Wind Dir Waves Ship Positions

Takamine

Last reported at 2014-Jul-18 12:20 UTC. Time now 2014-Jul-23 23:45 UTC.
Position N 34°51' E 139°36'.

Length 333 m; draft 10.4 m.

Type: Tanker. MMSI: 432832000.

Date/timePositionNaut miles runAvg speedWind from/ knotsBaromVisibWave heightAir tempDewpointWater temp
2014-Jul-18 12:20N 34°51' E 139°36'1215.5
2014-Jul-18 11:33N 35°03' E 139°40'1312.5
2014-Jul-18 10:33N 35°14' E 139°46'1211.9
2014-Jul-18 09:33N 35°26' E 139°45'1010.0
2014-Jul-18 08:33N 35°31' E 139°56'0 0.1
2014-Jul-18 07:32N 35°31' E 139°56'0 0.0
2014-Jul-18 06:32N 35°31' E 139°56'0 0.0
2014-Jul-18 05:29N 35°31' E 139°56'0 0.0
2014-Jul-18 04:32N 35°31' E 139°56'0 0.0
2014-Jul-18 03:32N 35°31' E 139°56'0 0.0
2014-Jul-18 02:32N 35°31' E 139°56'0 0.0
2014-Jul-18 01:32N 35°31' E 139°56'0 0.0
2014-Jul-18 00:32N 35°31' E 139°56'0 0.0
2014-Jul-17 23:29N 35°31' E 139°56'0 0.0
2014-Jul-17 22:32N 35°31' E 139°56'0 0.0
2014-Jul-17 21:32N 35°31' E 139°56'0 0.0
2014-Jul-17 20:32N 35°31' E 139°56'0 0.0
2014-Jul-17 19:32N 35°31' E 139°56'0 0.0
2014-Jul-17 18:32N 35°31' E 139°56'0 0.0
2014-Jul-17 17:32N 35°31' E 139°56'0 0.0
2014-Jul-17 16:32N 35°31' E 139°56'0 0.0
2014-Jul-17 15:32N 35°31' E 139°56'0 0.0
2014-Jul-17 14:32N 35°31' E 139°56'0 0.0
2014-Jul-17 13:32N 35°31' E 139°56'0 0.0
2014-Jul-17 12:32N 35°31' E 139°56'0 0.0
2014-Jul-17 11:32N 35°31' E 139°56'0 0.0
2014-Jul-17 10:32N 35°31' E 139°56'0 0.0
2014-Jul-17 09:32N 35°31' E 139°56'0 0.0
2014-Jul-17 08:32N 35°31' E 139°56'0 0.0
2014-Jul-17 07:32N 35°31' E 139°56'0 0.0
2014-Jul-17 06:32N 35°31' E 139°56'0 0.0
2014-Jul-17 05:29N 35°31' E 139°56'0 0.0
2014-Jul-17 04:32N 35°31' E 139°56'0 0.0
2014-Jul-17 03:32N 35°31' E 139°56'0 0.0
2014-Jul-17 02:32N 35°31' E 139°56'0 0.0
2014-Jul-17 01:32N 35°31' E 139°56'0 0.0
2014-Jul-17 00:29N 35°31' E 139°56'0 0.0
2014-Jul-16 23:32N 35°31' E 139°56'0 0.0
2014-Jul-16 22:32N 35°31' E 139°56'0 0.0
2014-Jul-16 21:32N 35°31' E 139°56'0 0.0
2014-Jul-16 20:32N 35°31' E 139°56'0 0.0
2014-Jul-16 19:26N 35°31' E 139°56'0 0.0
2014-Jul-16 18:32N 35°31' E 139°56'0 0.0
2014-Jul-16 17:32N 35°31' E 139°56'0 0.0
2014-Jul-16 16:32N 35°31' E 139°56'0 0.0
2014-Jul-16 15:32N 35°31' E 139°56'0 0.0
2014-Jul-16 14:32N 35°31' E 139°56'0 0.0
2014-Jul-16 13:32N 35°31' E 139°56'0 0.0
2014-Jul-16 12:32N 35°31' E 139°56'0 0.0
2014-Jul-16 11:32N 35°31' E 139°56'0 0.0
2014-Jul-16 10:32N 35°31' E 139°56'0 0.0
2014-Jul-16 09:32N 35°31' E 139°56'0 0.0
2014-Jul-16 08:32N 35°31' E 139°56'0 0.1
2014-Jul-16 07:33N 35°31' E 139°56'2 1.7
2014-Jul-16 06:33N 35°30' E 139°54'8 7.9
2014-Jul-16 05:34N 35°25' E 139°47'1010.3
2014-Jul-16 04:33N 35°14' E 139°47'9 8.7
2014-Jul-16 03:34N 35°06' E 139°46'8 8.2
2014-Jul-16 02:33N 34°58' E 139°41'8 8.0
2014-Jul-16 01:33N 34°50' E 139°40'10 9.0
2014-Jul-16 00:29N 34°41' E 139°38'1110.8
2014-Jul-15 23:25N 34°30' E 139°42'1212.1
2014-Jul-15 22:25N 34°18' E 139°41'4214.3
2014-Jul-15 19:28N 33°51' E 139°02'  

Dump ship's entire track history